createdAt,value
2022-12-15T00:00:36.990Z,63.33
2022-12-15T00:03:23.167Z,63.49
2022-12-15T00:06:03.091Z,63.05
2022-12-15T00:08:42.904Z,63.50
2022-12-15T00:11:23.212Z,63.77
2022-12-15T00:14:03.116Z,63.31
2022-12-15T00:16:43.200Z,63.24
2022-12-15T00:19:24.022Z,63.60
2022-12-15T00:22:04.150Z,63.40
2022-12-15T00:24:44.043Z,63.21
2022-12-15T00:27:24.570Z,62.90
2022-12-15T00:30:05.106Z,63.23
2022-12-15T00:32:44.934Z,63.38
2022-12-15T00:35:25.455Z,63.00
2022-12-15T00:38:05.422Z,63.19
2022-12-15T00:40:26.875Z,64.12
2022-12-15T00:42:49.607Z,63.39
2022-12-15T00:45:11.322Z,63.50
2022-12-15T00:47:33.527Z,63.33
2022-12-15T00:50:13.644Z,63.60
2022-12-15T00:52:54.266Z,64.25
2022-12-15T00:55:34.336Z,65.04
2022-12-15T00:58:14.226Z,65.37
2022-12-15T01:00:54.434Z,64.69
2022-12-15T01:03:39.895Z,65.58
2022-12-15T01:06:24.449Z,65.56
2022-12-15T01:09:04.174Z,65.82
2022-12-15T01:11:44.419Z,65.07
2022-12-15T01:14:24.369Z,64.54
2022-12-15T01:17:04.183Z,64.79
2022-12-15T01:19:43.876Z,64.47
2022-12-15T01:22:07.018Z,64.72
2022-12-15T01:24:28.507Z,64.43
2022-12-15T01:26:50.063Z,64.94
2022-12-15T01:29:11.511Z,64.83
2022-12-15T01:31:33.039Z,64.78
2022-12-15T01:33:55.408Z,64.63
2022-12-15T01:36:16.880Z,65.24
2022-12-15T01:38:38.653Z,64.83
2022-12-15T01:41:06.677Z,65.18
2022-12-15T01:43:32.472Z,65.32
2022-12-15T01:46:01.980Z,65.79
2022-12-15T01:48:28.383Z,65.76
2022-12-15T01:51:04.480Z,64.68
2022-12-15T01:53:27.375Z,65.46
2022-12-15T01:55:49.707Z,65.51
2022-12-15T01:58:13.535Z,65.45
2022-12-15T02:00:35.169Z,65.17
2022-12-15T02:02:59.059Z,65.26
2022-12-15T02:05:21.511Z,66.19
2022-12-15T02:07:42.952Z,66.02
2022-12-15T02:10:07.400Z,65.32
2022-12-15T02:12:35.896Z,66.50
2022-12-15T02:15:25.391Z,65.56
2022-12-15T02:17:49.763Z,65.39
2022-12-15T02:20:44.816Z,65.04
2022-12-15T02:23:15.213Z,65.45
2022-12-15T02:26:09.738Z,64.92
2022-12-15T02:28:49.316Z,65.05
2022-12-15T02:31:39.415Z,65.78
2022-12-15T02:34:11.163Z,65.47
2022-12-15T02:36:37.283Z,65.42
2022-12-15T02:38:58.782Z,65.39
2022-12-15T02:41:39.667Z,65.41
2022-12-15T02:44:05.575Z,65.00
2022-12-15T02:46:41.314Z,65.12
2022-12-15T02:49:36.957Z,65.19
2022-12-15T02:52:30.862Z,64.98
2022-12-15T02:54:58.457Z,64.97
2022-12-15T02:58:00.033Z,64.90
2022-12-15T03:00:22.739Z,65.10
2022-12-15T03:02:53.182Z,65.62
2022-12-15T03:05:16.489Z,65.25
2022-12-15T03:07:37.995Z,65.12
2022-12-15T03:10:02.318Z,65.12
2022-12-15T03:12:23.871Z,65.05
2022-12-15T03:14:45.344Z,64.98
2022-12-15T03:17:07.575Z,64.69
2022-12-15T03:19:28.993Z,64.70
2022-12-15T03:21:50.442Z,65.00
2022-12-15T03:24:12.021Z,65.11
2022-12-15T03:26:33.592Z,64.85
2022-12-15T03:28:55.036Z,64.75
2022-12-15T03:31:16.519Z,64.91
2022-12-15T03:33:38.013Z,64.92
2022-12-15T03:36:00.091Z,64.64
2022-12-15T03:38:21.604Z,64.43
2022-12-15T03:40:43.076Z,64.55
2022-12-15T03:43:04.534Z,64.49
2022-12-15T03:45:28.091Z,64.51
2022-12-15T03:47:50.480Z,64.94
2022-12-15T03:50:13.807Z,64.54
2022-12-15T03:52:36.126Z,64.10
2022-12-15T03:54:57.536Z,64.04
2022-12-15T03:57:18.983Z,63.92
2022-12-15T03:59:40.436Z,64.03
2022-12-15T04:02:01.955Z,64.05
2022-12-15T04:04:23.586Z,63.87
2022-12-15T04:06:45.107Z,63.67
2022-12-15T04:09:06.534Z,63.58
2022-12-15T04:11:28.010Z,63.70
2022-12-15T04:13:49.461Z,63.46
2022-12-15T04:16:14.798Z,63.77
2022-12-15T04:18:39.402Z,63.71
2022-12-15T04:21:00.859Z,63.68
2022-12-15T04:23:22.949Z,63.71
2022-12-15T04:26:03.129Z,63.83
2022-12-15T04:28:42.831Z,63.81
2022-12-15T04:31:38.494Z,63.94
2022-12-15T04:34:22.441Z,63.78
2022-12-15T04:37:05.527Z,63.42
2022-12-15T04:39:46.452Z,63.33
2022-12-15T04:42:26.572Z,64.03
2022-12-15T04:45:12.206Z,64.72
2022-12-15T04:47:54.621Z,63.87
2022-12-15T04:50:34.728Z,64.34
2022-12-15T04:53:14.528Z,64.46
2022-12-15T04:55:55.153Z,64.73
2022-12-15T04:58:35.194Z,64.28
2022-12-15T05:01:18.391Z,64.40
2022-12-15T05:03:58.643Z,64.31
2022-12-15T05:06:39.070Z,64.45
2022-12-15T05:09:18.926Z,64.17
2022-12-15T05:11:58.656Z,64.39
2022-12-15T05:14:38.423Z,64.62
2022-12-15T05:17:18.654Z,64.76
2022-12-15T05:19:58.788Z,64.35
2022-12-15T05:22:38.882Z,64.25
2022-12-15T05:25:18.640Z,64.21
2022-12-15T05:27:58.532Z,64.37
2022-12-15T05:30:38.743Z,64.02
2022-12-15T05:33:04.492Z,64.12
2022-12-15T05:35:25.993Z,64.43
2022-12-15T05:37:47.444Z,63.98
2022-12-15T05:40:09.802Z,64.67
2022-12-15T05:42:31.252Z,64.21
2022-12-15T05:44:52.758Z,64.33
2022-12-15T05:47:14.230Z,64.10
2022-12-15T05:49:35.789Z,64.33
2022-12-15T05:51:57.364Z,64.65
2022-12-15T05:54:19.766Z,64.55
2022-12-15T05:56:41.672Z,63.98
2022-12-15T05:59:04.270Z,63.87
2022-12-15T06:01:26.857Z,64.06
2022-12-15T06:03:48.434Z,63.90
2022-12-15T06:06:12.035Z,64.05
2022-12-15T06:08:35.997Z,63.93
2022-12-15T06:10:57.552Z,63.64
2022-12-15T06:13:19.114Z,63.90
2022-12-15T06:15:40.565Z,63.74
2022-12-15T06:18:02.064Z,63.41
2022-12-15T06:20:24.290Z,63.41
2022-12-15T06:22:49.883Z,63.47
2022-12-15T06:25:11.690Z,64.06
2022-12-15T06:27:36.208Z,63.86
2022-12-15T06:29:57.688Z,63.68
2022-12-15T06:32:21.277Z,63.79
2022-12-15T06:34:42.814Z,63.73
2022-12-15T06:37:04.554Z,63.40
2022-12-15T06:39:26.023Z,63.23
2022-12-15T06:41:47.568Z,63.41
2022-12-15T06:44:13.231Z,63.56
2022-12-15T06:46:35.185Z,63.84
2022-12-15T06:48:57.537Z,63.82
2022-12-15T06:51:19.469Z,63.61
2022-12-15T06:53:42.674Z,63.26
2022-12-15T06:56:07.376Z,63.54
2022-12-15T06:58:28.891Z,63.15
2022-12-15T07:00:50.354Z,63.30
2022-12-15T07:03:17.268Z,63.38
2022-12-15T07:05:38.827Z,63.21
2022-12-15T07:08:00.302Z,62.93
2022-12-15T07:10:21.724Z,63.75
2022-12-15T07:12:43.188Z,63.12
2022-12-15T07:15:05.300Z,63.56
2022-12-15T07:17:26.943Z,62.90
2022-12-15T07:19:48.364Z,62.97
2022-12-15T07:22:09.813Z,63.27
2022-12-15T07:24:31.324Z,62.93
2022-12-15T07:26:52.775Z,62.95
2022-12-15T07:29:19.559Z,62.97
2022-12-15T07:31:44.472Z,62.94
2022-12-15T07:34:05.999Z,63.06
2022-12-15T07:36:30.319Z,63.09
2022-12-15T07:38:52.102Z,63.40
2022-12-15T07:41:13.701Z,63.29
2022-12-15T07:43:36.246Z,63.17
2022-12-15T07:45:58.391Z,63.39
2022-12-15T07:48:20.591Z,63.74
2022-12-15T07:50:42.017Z,64.41
2022-12-15T07:53:03.485Z,64.94
2022-12-15T07:55:50.050Z,64.54
2022-12-15T07:58:06.991Z,64.33
2022-12-15T08:00:28.890Z,64.18
2022-12-15T08:02:50.545Z,63.96
2022-12-15T08:05:12.190Z,64.43
2022-12-15T08:07:33.710Z,65.24
2022-12-15T08:09:55.176Z,66.02
2022-12-15T08:12:17.143Z,66.01
2022-12-15T08:14:38.570Z,65.72
2022-12-15T08:17:00.190Z,65.20
2022-12-15T08:19:21.719Z,67.01
2022-12-15T08:21:45.499Z,67.37
2022-12-15T08:24:08.328Z,66.30
2022-12-15T08:26:31.135Z,65.96
2022-12-15T08:28:53.019Z,65.80
2022-12-15T08:31:17.596Z,65.58
2022-12-15T08:33:39.482Z,66.38
2022-12-15T08:36:03.184Z,67.37
2022-12-15T08:38:24.648Z,68.02
2022-12-15T08:40:46.130Z,66.75
2022-12-15T08:43:07.601Z,66.25
2022-12-15T08:45:29.090Z,65.94
2022-12-15T08:47:50.549Z,66.22
2022-12-15T08:50:12.041Z,69.94
2022-12-15T08:52:34.001Z,70.94
2022-12-15T08:54:55.523Z,70.73
2022-12-15T08:57:16.969Z,71.74
2022-12-15T08:59:38.490Z,74.53
2022-12-15T09:02:00.550Z,72.04
2022-12-15T09:04:22.116Z,71.53
2022-12-15T09:06:44.180Z,71.95
2022-12-15T09:09:12.105Z,70.61
2022-12-15T09:11:34.259Z,70.22
2022-12-15T09:13:56.102Z,71.71
2022-12-15T09:16:19.145Z,70.95
2022-12-15T09:18:46.731Z,70.92
2022-12-15T09:21:08.359Z,70.94
2022-12-15T09:23:30.383Z,71.90
2022-12-15T09:25:59.696Z,72.40
2022-12-15T09:28:21.199Z,71.20
2022-12-15T09:30:42.847Z,71.14
2022-12-15T09:33:04.511Z,70.79
2022-12-15T09:35:28.967Z,70.83
2022-12-15T09:37:52.048Z,70.73
2022-12-15T09:40:13.935Z,70.67
2022-12-15T09:42:35.509Z,70.58
2022-12-15T09:45:03.115Z,70.76
2022-12-15T09:47:35.018Z,70.30
2022-12-15T09:49:58.369Z,70.20
2022-12-15T09:52:25.679Z,70.02
2022-12-15T09:54:47.394Z,70.52
2022-12-15T09:57:27.129Z,70.26
2022-12-15T10:00:08.205Z,70.23
2022-12-15T10:02:41.779Z,73.01
2022-12-15T10:05:50.147Z,73.32
2022-12-15T10:08:13.652Z,72.80
2022-12-15T10:10:43.536Z,74.70
2022-12-15T10:13:15.477Z,73.34
2022-12-15T10:15:53.243Z,72.94
2022-12-15T10:18:17.669Z,72.49
2022-12-15T10:20:39.446Z,72.83
2022-12-15T10:23:12.356Z,73.48
2022-12-15T10:25:33.832Z,72.70
2022-12-15T10:28:13.739Z,72.40
2022-12-15T10:30:39.471Z,72.35
2022-12-15T10:33:19.257Z,72.68
2022-12-15T10:35:43.928Z,72.26
2022-12-15T10:38:24.207Z,75.22
2022-12-15T10:41:07.592Z,78.04
2022-12-15T10:43:35.692Z,80.97
2022-12-15T10:46:02.036Z,83.22
2022-12-15T10:48:23.537Z,83.96
2022-12-15T10:50:45.014Z,83.15
2022-12-15T10:53:09.503Z,82.09
2022-12-15T10:55:43.841Z,81.19
2022-12-15T10:58:20.954Z,80.92
2022-12-15T11:00:42.451Z,81.52
2022-12-15T11:03:21.834Z,81.28
2022-12-15T11:05:52.145Z,83.47
2022-12-15T11:08:16.341Z,81.15
2022-12-15T11:11:16.267Z,82.27
2022-12-15T11:13:38.420Z,85.61
2022-12-15T11:16:11.003Z,84.78
2022-12-15T11:18:38.706Z,82.43
2022-12-15T11:21:21.573Z,81.22
2022-12-15T11:24:12.116Z,81.93
2022-12-15T11:26:51.021Z,82.90
2022-12-15T11:29:34.528Z,82.94
2022-12-15T11:32:01.435Z,81.46
2022-12-15T11:34:37.711Z,81.12
2022-12-15T11:37:20.321Z,82.68
2022-12-15T11:39:56.941Z,82.17
2022-12-15T11:42:38.780Z,82.30
2022-12-15T11:45:24.613Z,82.75
2022-12-15T11:47:55.200Z,82.96
2022-12-15T11:50:28.661Z,83.09
2022-12-15T11:52:54.877Z,82.60
2022-12-15T11:55:47.044Z,82.77
2022-12-15T11:58:42.962Z,83.19
2022-12-15T12:01:16.250Z,81.50
2022-12-15T12:03:55.715Z,82.41
2022-12-15T12:06:25.068Z,81.64
2022-12-15T12:09:15.786Z,81.23
2022-12-15T12:11:56.072Z,82.37
2022-12-15T12:14:38.998Z,81.77
2022-12-15T12:17:10.359Z,81.34
2022-12-15T12:19:40.390Z,80.71
2022-12-15T12:22:27.029Z,80.52
2022-12-15T12:24:56.630Z,82.05
2022-12-15T12:27:29.750Z,82.35
2022-12-15T12:29:55.438Z,82.08
2022-12-15T12:32:40.428Z,82.37
2022-12-15T12:35:31.249Z,82.23
2022-12-15T12:38:03.316Z,81.31
2022-12-15T12:40:36.999Z,81.33
2022-12-15T12:42:59.921Z,82.01
2022-12-15T12:45:27.669Z,82.30
2022-12-15T12:47:51.514Z,82.78
2022-12-15T12:50:16.286Z,82.07
2022-12-15T12:52:38.120Z,82.38
2022-12-15T12:55:03.227Z,80.69
2022-12-15T12:57:35.245Z,80.16
2022-12-15T13:00:00.824Z,79.20
2022-12-15T13:02:24.636Z,79.50
2022-12-15T13:05:04.425Z,81.53
2022-12-15T13:07:32.066Z,81.77
2022-12-15T13:10:08.954Z,80.34
2022-12-15T13:15:29.982Z,78.60
2022-12-15T13:17:55.727Z,77.38
2022-12-15T13:20:29.647Z,78.45
2022-12-15T13:22:51.872Z,78.52
2022-12-15T13:25:37.854Z,78.20
2022-12-15T13:28:02.338Z,78.33
2022-12-15T13:30:24.046Z,79.44
2022-12-15T13:32:47.327Z,79.05
2022-12-15T13:35:11.961Z,78.42
2022-12-15T13:37:53.757Z,77.39
2022-12-15T13:40:26.094Z,76.93
2022-12-15T13:42:56.271Z,76.19
2022-12-15T13:45:33.080Z,75.87
2022-12-15T13:47:56.193Z,75.57
2022-12-15T13:50:31.044Z,76.33
2022-12-15T13:55:46.207Z,74.17
2022-12-15T13:58:16.866Z,74.00
2022-12-15T14:00:39.588Z,75.04
2022-12-15T14:03:11.774Z,75.17
2022-12-15T14:05:33.449Z,75.99
2022-12-15T14:07:56.156Z,76.30
2022-12-15T14:10:21.961Z,76.48
2022-12-15T14:12:45.107Z,76.23
2022-12-15T14:15:14.509Z,75.69
2022-12-15T14:17:36.608Z,75.50
2022-12-15T14:19:58.026Z,75.16
2022-12-15T14:22:28.635Z,74.70
2022-12-15T14:24:52.002Z,74.42
2022-12-15T14:27:31.621Z,74.39
2022-12-15T14:30:35.525Z,74.25
2022-12-15T14:33:10.901Z,73.25
2022-12-15T14:35:44.114Z,73.79
2022-12-15T14:38:24.191Z,72.97
2022-12-15T14:40:49.274Z,72.38
2022-12-15T14:43:19.171Z,72.46
2022-12-15T14:45:40.853Z,72.53
2022-12-15T14:50:51.255Z,71.96
2022-12-15T14:53:17.058Z,69.67
2022-12-15T14:55:39.511Z,68.57
2022-12-15T14:58:02.458Z,68.20
2022-12-15T15:00:31.641Z,68.81
2022-12-15T15:03:18.336Z,68.87
2022-12-15T15:06:11.020Z,68.74
2022-12-15T15:08:43.063Z,68.39
2022-12-15T15:11:20.273Z,69.39
2022-12-15T15:13:41.926Z,68.27
2022-12-15T15:16:06.973Z,69.19
2022-12-15T15:18:29.840Z,68.64
2022-12-15T15:21:03.351Z,68.74
2022-12-15T15:23:24.807Z,68.53
2022-12-15T15:25:51.984Z,67.27
2022-12-15T15:28:19.222Z,68.48
2022-12-15T15:30:43.940Z,68.25
2022-12-15T15:33:08.828Z,67.71
2022-12-15T15:35:33.324Z,67.17
2022-12-15T15:38:02.261Z,67.05
2022-12-15T15:40:23.955Z,67.24
2022-12-15T15:42:45.811Z,67.47
2022-12-15T15:45:14.720Z,66.59
2022-12-15T15:47:36.829Z,67.04
2022-12-15T15:49:59.907Z,66.75
2022-12-15T15:52:22.319Z,66.77
2022-12-15T15:54:44.693Z,67.28
2022-12-15T15:57:06.158Z,67.02
2022-12-15T15:59:28.981Z,66.79
2022-12-15T16:01:55.885Z,66.77
2022-12-15T16:04:17.585Z,66.70
2022-12-15T16:06:45.120Z,65.58
2022-12-15T16:09:12.739Z,65.25
2022-12-15T16:11:35.242Z,66.29
2022-12-15T16:13:56.912Z,65.93
2022-12-15T16:16:21.529Z,66.24
2022-12-15T16:18:43.047Z,66.35
2022-12-15T16:21:04.565Z,66.04
2022-12-15T16:23:29.119Z,66.57
2022-12-15T16:25:56.729Z,66.37
2022-12-15T16:28:21.502Z,66.10
2022-12-15T16:30:43.696Z,65.99
2022-12-15T16:33:05.186Z,66.38
2022-12-15T16:35:26.785Z,65.42
2022-12-15T16:37:49.230Z,65.54
2022-12-15T16:40:18.098Z,65.74
2022-12-15T16:42:39.616Z,65.46
2022-12-15T16:45:02.232Z,64.87
2022-12-15T16:47:23.705Z,65.21
2022-12-15T16:49:45.233Z,64.13
2022-12-15T16:52:18.002Z,64.70
2022-12-15T16:54:40.132Z,64.57
2022-12-15T16:57:02.108Z,65.01
2022-12-15T16:59:34.892Z,64.22
2022-12-15T17:01:57.722Z,64.62
2022-12-15T17:04:19.547Z,63.82
2022-12-15T17:06:40.998Z,63.92
2022-12-15T17:09:02.735Z,63.99
2022-12-15T17:11:26.613Z,64.11
2022-12-15T17:13:51.311Z,63.20
2022-12-15T17:16:16.015Z,63.93
2022-12-15T17:18:37.539Z,63.54
2022-12-15T17:21:15.818Z,63.16
2022-12-15T17:23:37.361Z,61.89
2022-12-15T17:26:22.660Z,63.18
2022-12-15T17:28:40.741Z,63.16
2022-12-15T17:31:02.797Z,63.26
2022-12-15T17:33:27.434Z,63.63
2022-12-15T17:35:51.758Z,63.33
2022-12-15T17:38:16.635Z,63.47
2022-12-15T17:40:38.107Z,63.29
2022-12-15T17:42:59.577Z,63.19
2022-12-15T17:45:23.781Z,63.15
2022-12-15T17:47:45.692Z,62.46
2022-12-15T17:50:07.753Z,62.64
2022-12-15T17:52:34.416Z,63.02
2022-12-15T17:54:56.692Z,62.51
2022-12-15T17:57:18.387Z,62.76
2022-12-15T17:59:39.888Z,62.86
2022-12-15T18:02:42.688Z,63.27
2022-12-15T18:05:04.775Z,63.29
2022-12-15T18:07:26.284Z,63.08
2022-12-15T18:09:49.582Z,63.08
2022-12-15T18:12:29.696Z,63.11
2022-12-15T18:14:52.009Z,63.08
2022-12-15T18:17:14.252Z,63.58
2022-12-15T18:19:35.708Z,63.64
2022-12-15T18:21:57.165Z,63.84
2022-12-15T18:24:21.535Z,63.24
2022-12-15T18:26:43.152Z,62.46
2022-12-15T18:29:17.587Z,62.49
2022-12-15T18:31:39.187Z,62.76
2022-12-15T18:34:04.725Z,62.52
2022-12-15T18:36:26.637Z,62.87
2022-12-15T18:38:48.874Z,62.77
2022-12-15T18:41:15.169Z,62.67
2022-12-15T18:43:36.742Z,62.76
2022-12-15T18:45:58.904Z,62.84
2022-12-15T18:48:24.801Z,63.06
2022-12-15T18:50:48.461Z,63.15
2022-12-15T18:53:17.607Z,63.24
2022-12-15T18:55:39.106Z,63.53
2022-12-15T18:58:01.772Z,63.14
2022-12-15T19:00:30.267Z,62.97
2022-12-15T19:02:53.063Z,62.91
2022-12-15T19:05:28.412Z,63.00
2022-12-15T19:07:49.900Z,62.87
2022-12-15T19:10:14.543Z,62.79
2022-12-15T19:12:36.037Z,62.95
2022-12-15T19:14:57.499Z,63.14
2022-12-15T19:17:41.979Z,62.97
2022-12-15T19:20:33.428Z,63.07
2022-12-15T19:22:54.943Z,62.67
2022-12-15T19:25:26.692Z,62.98
2022-12-15T19:27:48.268Z,63.03
2022-12-15T19:30:18.359Z,63.01
2022-12-15T19:32:39.851Z,62.92
2022-12-15T19:35:01.346Z,62.29
2022-12-15T19:37:29.473Z,62.38
2022-12-15T19:39:52.028Z,62.23
2022-12-15T19:42:23.957Z,62.46
2022-12-15T19:44:45.539Z,62.48
2022-12-15T19:47:13.631Z,62.00
2022-12-15T19:49:35.192Z,62.63
2022-12-15T19:51:56.682Z,62.33
2022-12-15T19:54:21.297Z,62.22
2022-12-15T19:56:42.829Z,62.75
2022-12-15T19:59:04.335Z,62.50
2022-12-15T20:01:26.018Z,62.45
2022-12-15T20:03:50.331Z,62.49
2022-12-15T20:06:25.663Z,62.51
2022-12-15T20:08:50.203Z,62.49
2022-12-15T20:11:21.047Z,62.51
2022-12-15T20:13:42.538Z,62.24
2022-12-15T20:16:04.160Z,62.20
2022-12-15T20:18:25.639Z,62.29
2022-12-15T20:20:48.741Z,62.54
2022-12-15T20:23:19.884Z,62.54
2022-12-15T20:25:42.559Z,62.76
2022-12-15T20:28:06.848Z,63.00
2022-12-15T20:30:32.691Z,62.34
2022-12-15T20:32:54.576Z,62.94
2022-12-15T20:35:17.643Z,62.35
2022-12-15T20:37:39.177Z,62.54
2022-12-15T20:40:00.677Z,62.31
2022-12-15T20:42:22.686Z,62.28
2022-12-15T20:44:44.264Z,62.83
2022-12-15T20:47:06.070Z,62.28
2022-12-15T20:49:28.260Z,62.30
2022-12-15T20:51:50.689Z,62.23
2022-12-15T20:54:17.724Z,62.00
2022-12-15T20:56:39.265Z,61.69
2022-12-15T20:59:00.762Z,61.82
2022-12-15T21:01:28.300Z,61.54
2022-12-15T21:03:53.403Z,62.26
2022-12-15T21:06:14.957Z,62.11
2022-12-15T21:08:36.485Z,62.20
2022-12-15T21:11:05.719Z,61.97
2022-12-15T21:13:30.977Z,62.18
2022-12-15T21:15:53.630Z,62.21
2022-12-15T21:20:58.884Z,61.80
2022-12-15T21:23:24.870Z,62.60
2022-12-15T21:25:47.375Z,62.17
2022-12-15T21:28:11.890Z,61.87
2022-12-15T21:30:35.050Z,62.09
2022-12-15T21:32:56.524Z,61.64
2022-12-15T21:35:19.444Z,61.64
2022-12-15T21:37:42.734Z,62.01
2022-12-15T21:40:05.248Z,62.10
2022-12-15T21:42:27.338Z,61.91
2022-12-15T21:44:48.856Z,61.83
2022-12-15T21:47:24.651Z,61.61
2022-12-15T21:49:46.114Z,61.84
2022-12-15T21:52:09.470Z,61.80
2022-12-15T21:54:33.043Z,62.12
2022-12-15T21:56:54.529Z,62.32
2022-12-15T21:59:22.517Z,62.47
2022-12-15T22:01:44.336Z,62.56
2022-12-15T22:04:19.148Z,62.57
2022-12-15T22:06:45.870Z,62.28
2022-12-15T22:09:11.157Z,62.56
2022-12-15T22:11:32.635Z,62.17
2022-12-15T22:13:56.707Z,63.07
2022-12-15T22:16:18.359Z,62.64
2022-12-15T22:18:39.885Z,62.88
2022-12-15T22:21:01.366Z,63.05
2022-12-15T22:23:22.848Z,62.94
2022-12-15T22:25:45.184Z,63.22
2022-12-15T22:28:17.773Z,63.19
2022-12-15T22:30:39.294Z,62.89
2022-12-15T22:33:02.433Z,62.89
2022-12-15T22:35:26.508Z,62.87
2022-12-15T22:37:49.825Z,62.63
2022-12-15T22:40:13.416Z,62.69
2022-12-15T22:42:35.850Z,62.46
2022-12-15T22:44:57.353Z,62.20
2022-12-15T22:47:18.909Z,62.28
2022-12-15T22:49:41.181Z,62.37
2022-12-15T22:52:03.404Z,62.41
2022-12-15T22:54:27.253Z,62.27
2022-12-15T22:57:19.965Z,62.24
2022-12-15T22:59:47.097Z,62.08
2022-12-15T23:02:09.628Z,62.16
2022-12-15T23:04:31.959Z,61.82
2022-12-15T23:06:53.503Z,62.11
2022-12-15T23:09:16.445Z,62.05
2022-12-15T23:11:38.150Z,62.23
2022-12-15T23:13:59.666Z,61.95
2022-12-15T23:16:21.738Z,62.45
2022-12-15T23:18:43.502Z,62.27
2022-12-15T23:21:05.256Z,62.18
2022-12-15T23:23:28.057Z,62.21
2022-12-15T23:25:49.538Z,62.17
2022-12-15T23:28:11.031Z,61.75
2022-12-15T23:30:32.615Z,62.68
2022-12-15T23:32:57.044Z,62.28
2022-12-15T23:35:18.832Z,62.37
2022-12-15T23:37:40.720Z,62.37
2022-12-15T23:40:02.225Z,62.47
2022-12-15T23:42:23.715Z,62.72
2022-12-15T23:44:45.238Z,62.27
2022-12-15T23:47:07.926Z,62.39
2022-12-15T23:49:30.109Z,62.37
2022-12-15T23:51:51.560Z,62.05
2022-12-15T23:54:13.979Z,62.29
2022-12-15T23:56:35.562Z,62.19
2022-12-15T23:58:58.816Z,62.61
